Time;durP1;ratioP1;P1;durP2;ratioP2;P2;SDS_P1;SDS_P2;PMS_P1;PMS_P2;Temp;Humidity;BMP_temperature;BMP_pressure;BME280_temperature;BME280_humidity;BME280_pressure;Samples;Min_cycle;Max_cycle;Signal;HPM_P1;HPM_P2
2023/04/22 00:02:18;;;;;;;3.33;1.70;;;;;;;18.37;45.11;96192.53;5044364;28;20061;-30
2023/04/22 00:04:46;;;;;;;2.40;1.33;;;;;;;18.34;45.15;96188.00;5036829;28;20052;-29
2023/04/22 00:07:13;;;;;;;2.42;1.65;;;;;;;18.43;44.88;96195.31;5037465;28;20389;-30
2023/04/22 00:09:39;;;;;;;2.95;1.60;;;;;;;18.24;45.33;96186.63;5037274;28;20449;-31
2023/04/22 00:12:04;;;;;;;3.00;1.70;;;;;;;18.46;44.64;96188.84;5036948;28;20026;-29
2023/04/22 00:14:30;;;;;;;3.88;1.58;;;;;;;18.31;44.81;96189.72;5038773;28;20091;-30
2023/04/22 00:16:56;;;;;;;2.60;1.75;;;;;;;18.20;44.61;96188.84;5046852;28;20032;-30
2023/04/22 00:19:22;;;;;;;2.35;1.63;;;;;;;18.21;44.60;96184.84;5039326;28;20036;-31
2023/04/22 00:21:47;;;;;;;2.58;1.70;;;;;;;18.36;44.15;96193.75;5036679;28;20021;-31
2023/04/22 00:24:13;;;;;;;2.47;1.77;;;;;;;18.20;44.61;96186.09;5034918;28;20464;-30
2023/04/22 00:26:38;;;;;;;2.05;1.65;;;;;;;18.19;44.21;96182.59;5044414;28;20029;-30
2023/04/22 00:29:03;;;;;;;2.90;1.40;;;;;;;18.26;44.01;96187.66;5043971;28;20018;-30
2023/04/22 00:31:29;;;;;;;2.30;1.58;;;;;;;18.35;43.44;96186.75;5036309;28;20025;-30
2023/04/22 00:33:55;;;;;;;2.38;1.60;;;;;;;18.34;43.17;96187.22;5043524;28;20090;-30
2023/04/22 00:36:20;;;;;;;2.97;1.40;;;;;;;18.31;43.31;96189.72;5043437;28;20374;-30
2023/04/22 00:38:51;;;;;;;1.80;1.30;;;;;;;18.42;43.15;96186.31;5036726;28;20021;-31
2023/04/22 00:41:17;;;;;;;2.88;1.60;;;;;;;18.35;43.06;96188.75;5041060;28;20059;-31
2023/04/22 00:43:43;;;;;;;2.22;2.00;;;;;;;18.39;43.44;96190.06;5039060;28;20104;-30
2023/04/22 00:46:08;;;;;;;1.95;1.40;;;;;;;18.29;42.50;96192.19;5036519;28;20389;-30
2023/04/22 00:48:36;;;;;;;2.80;1.42;;;;;;;18.34;42.97;96192.72;5038766;28;20025;-30
2023/04/22 00:51:02;;;;;;;1.88;1.25;;;;;;;18.22;42.95;96198.09;5036516;28;20029;-31
2023/04/22 00:53:27;;;;;;;1.50;1.13;;;;;;;18.37;42.90;96191.75;5040572;28;20025;-30
2023/04/22 00:55:53;;;;;;;1.92;1.30;;;;;;;18.37;42.92;96197.25;5046319;28;20032;-30
2023/04/22 00:58:21;;;;;;;2.35;1.40;;;;;;;18.22;43.01;96198.09;5044263;28;20027;-30
2023/04/22 01:00:47;;;;;;;3.60;1.50;;;;;;;18.40;42.54;96199.81;5036220;28;20022;-30
2023/04/22 01:03:13;;;;;;;1.58;1.20;;;;;;;18.32;42.98;96195.94;5036268;28;20083;-30
2023/04/22 01:05:40;;;;;;;2.97;1.40;;;;;;;18.22;42.97;96203.59;5035985;28;20033;-30
2023/04/22 01:08:05;;;;;;;3.15;1.50;;;;;;;18.33;42.68;96196.72;5042582;28;20075;-30
2023/04/22 01:10:31;;;;;;;2.33;1.30;;;;;;;18.28;42.59;96198.16;5038523;28;20462;-30
2023/04/22 01:12:56;;;;;;;1.52;1.10;;;;;;;18.35;42.46;96199.72;5048153;28;20025;-30
2023/04/22 01:15:22;;;;;;;1.73;1.50;;;;;;;18.12;42.96;96191.25;5035639;28;20033;-30
2023/04/22 01:17:47;;;;;;;2.42;1.50;;;;;;;18.12;43.05;96196.75;5042879;28;20025;-31
2023/04/22 01:20:13;;;;;;;2.10;1.60;;;;;;;18.20;43.38;96191.56;5034480;28;20032;-30
2023/04/22 01:22:44;;;;;;;2.58;1.58;;;;;;;18.34;42.95;96185.25;5042793;28;20083;-31
2023/04/22 01:25:10;;;;;;;2.30;1.50;;;;;;;18.22;43.06;96186.38;5043100;28;20492;-30
2023/04/22 01:27:37;;;;;;;2.15;1.60;;;;;;;18.35;42.95;96189.50;5036064;28;20106;-30
2023/04/22 01:30:04;;;;;;;2.30;1.77;;;;;;;18.43;43.15;96189.81;5035628;28;20555;-30
2023/04/22 01:32:30;;;;;;;2.33;1.75;;;;;;;18.14;43.61;96188.78;5035386;28;20025;-31
2023/04/22 01:34:56;;;;;;;2.25;1.85;;;;;;;17.99;44.04;96179.88;5044717;28;20021;-30
2023/04/22 01:37:21;;;;;;;2.42;1.67;;;;;;;18.19;43.46;96181.84;5045723;28;20020;-30
2023/04/22 01:39:47;;;;;;;2.33;1.77;;;;;;;17.85;44.53;96181.44;5036869;28;20382;-31
2023/04/22 01:42:14;;;;;;;2.47;2.00;;;;;;;17.93;44.37;96181.78;5035708;28;20017;-30
2023/04/22 01:44:39;;;;;;;3.70;2.15;;;;;;;18.04;44.00;96181.94;5035244;28;20419;-31
2023/04/22 01:47:05;;;;;;;2.95;2.20;;;;;;;18.05;44.17;96182.69;5042782;28;20025;-30
2023/04/22 01:49:30;;;;;;;3.92;1.67;;;;;;;17.85;44.54;96192.41;5035331;28;20033;-30
2023/04/22 01:51:57;;;;;;;2.42;1.80;;;;;;;17.97;44.33;96192.56;5042621;28;20021;-30
2023/04/22 01:54:22;;;;;;;3.70;2.20;;;;;;;17.82;44.67;96195.38;5035018;28;20040;-30
2023/04/22 01:56:52;;;;;;;2.42;1.75;;;;;;;17.95;44.62;96196.53;5035065;28;20025;-30
2023/04/22 01:59:19;;;;;;;2.58;1.92;;;;;;;17.98;44.54;96189.34;5035236;28;20021;-30
2023/04/22 02:01:45;;;;;;;3.20;1.95;;;;;;;17.81;45.25;96196.59;5034737;28;20096;-30
2023/04/22 02:04:10;;;;;;;4.15;2.08;;;;;;;17.79;45.45;96199.84;5040776;28;20048;-30
2023/04/22 02:06:36;;;;;;;2.83;2.17;;;;;;;17.76;45.24;96189.81;5038310;28;20357;-32
2023/04/22 02:09:01;;;;;;;4.70;2.22;;;;;;;17.71;45.77;96187.75;5038478;28;20014;-29
2023/04/22 02:11:26;;;;;;;3.25;2.20;;;;;;;17.65;45.67;96192.41;5036590;28;20033;-30
2023/04/22 02:13:52;;;;;;;3.20;2.33;;;;;;;17.76;45.82;96194.53;5040325;28;20470;-30
2023/04/22 02:16:17;;;;;;;4.63;2.60;;;;;;;17.88;45.40;96196.19;5034282;28;20025;-30
2023/04/22 02:18:43;;;;;;;2.75;2.13;;;;;;;17.71;45.76;96197.97;5041842;28;20045;-30
2023/04/22 02:21:08;;;;;;;3.67;2.33;;;;;;;17.81;45.64;96199.34;5040517;28;20020;-33
2023/04/22 02:23:35;;;;;;;3.08;1.88;;;;;;;17.66;45.73;96195.91;5034605;28;20099;-31
2023/04/22 02:26:02;;;;;;;2.95;1.80;;;;;;;17.78;45.29;96203.06;5034615;28;20021;-31
2023/04/22 02:28:27;;;;;;;3.97;2.13;;;;;;;17.59;45.98;96200.53;5031040;28;20027;-31
2023/04/22 02:30:53;;;;;;;3.67;2.05;;;;;;;17.70;45.49;96202.69;5035178;28;20026;-30
2023/04/22 02:33:18;;;;;;;2.80;2.20;;;;;;;18.00;45.03;96202.56;5040221;28;20052;-30
2023/04/22 02:35:44;;;;;;;3.70;2.60;;;;;;;17.85;45.13;96200.66;5043949;28;20024;-31
2023/04/22 02:38:09;;;;;;;4.90;2.35;;;;;;;17.81;45.22;96204.81;5040626;28;20021;-32
2023/04/22 02:40:35;;;;;;;2.58;1.90;;;;;;;17.85;45.02;96203.41;5034293;28;20029;-31
2023/04/22 02:43:00;;;;;;;2.95;2.10;;;;;;;17.74;45.16;96208.75;5033142;28;20546;-29
2023/04/22 02:45:26;;;;;;;3.55;2.13;;;;;;;17.78;45.14;96203.06;5034190;28;20033;-30
2023/04/22 02:47:51;;;;;;;2.38;1.88;;;;;;;17.74;44.96;96205.25;5041402;28;20117;-30
2023/04/22 02:50:17;;;;;;;2.30;1.73;;;;;;;17.71;45.12;96208.94;5041123;28;20029;-30
2023/04/22 02:52:42;;;;;;;3.78;1.98;;;;;;;17.88;44.93;96212.66;5034297;28;20033;-30
2023/04/22 02:55:08;;;;;;;4.32;1.88;;;;;;;17.61;45.06;96202.78;5041257;28;20087;-29
2023/04/22 02:57:34;;;;;;;2.53;1.88;;;;;;;17.78;44.84;96206.56;5034256;28;20021;-30
2023/04/22 02:59:59;;;;;;;3.03;2.00;;;;;;;17.54;44.97;96206.72;5041230;28;20074;-31
2023/04/22 03:02:25;;;;;;;2.13;1.75;;;;;;;17.73;44.61;96201.75;5036923;28;20029;-30
2023/04/22 03:04:53;;;;;;;2.28;1.88;;;;;;;17.87;44.41;96198.19;5038161;28;20540;-31
2023/04/22 03:07:18;;;;;;;2.22;1.60;;;;;;;17.89;44.48;96192.97;5033975;28;20021;-30
2023/04/22 03:09:44;;;;;;;2.13;1.70;;;;;;;17.68;44.69;96196.94;5033866;28;20021;-32
2023/04/22 03:12:10;;;;;;;2.17;1.80;;;;;;;17.71;44.53;96195.22;5040386;28;20029;-33
2023/04/22 03:14:35;;;;;;;3.90;1.83;;;;;;;17.82;44.48;96198.84;5040924;28;20028;-30
2023/04/22 03:17:01;;;;;;;3.28;2.08;;;;;;;17.89;44.23;96203.19;5045991;28;20063;-31
2023/04/22 03:19:26;;;;;;;3.15;1.90;;;;;;;17.81;44.19;96199.34;5035496;28;20067;-30
2023/04/22 03:21:52;;;;;;;3.03;1.98;;;;;;;17.68;44.55;96201.69;5033616;28;20032;-30
2023/04/22 03:24:17;;;;;;;2.97;2.08;;;;;;;17.76;44.49;96202.78;5033843;28;20100;-30
2023/04/22 03:26:43;;;;;;;3.20;2.28;;;;;;;17.70;44.35;96202.69;5033662;28;20033;-31
2023/04/22 03:29:08;;;;;;;2.50;1.80;;;;;;;17.56;44.63;96209.69;5038824;28;20060;-30
2023/04/22 03:31:34;;;;;;;3.20;1.90;;;;;;;17.60;45.07;96204.78;5036092;28;20025;-30
2023/04/22 03:34:00;;;;;;;2.15;1.77;;;;;;;17.55;45.25;96207.47;5033667;28;20025;-31
2023/04/22 03:36:26;;;;;;;2.80;1.75;;;;;;;17.72;44.32;96200.22;5040762;28;20036;-30
2023/04/22 03:38:51;;;;;;;3.10;1.90;;;;;;;17.67;44.76;96202.91;5033603;28;20029;-30
2023/04/22 03:41:17;;;;;;;1.92;1.50;;;;;;;17.64;44.74;96193.66;5033372;28;20021;-31
2023/04/22 03:43:42;;;;;;;3.55;1.65;;;;;;;17.73;44.36;96200.97;5040295;28;20079;-30
2023/04/22 03:46:08;;;;;;;2.33;1.63;;;;;;;17.81;44.24;96205.56;5033924;28;20045;-30
2023/04/22 03:48:34;;;;;;;2.10;1.60;;;;;;;17.84;43.94;96204.63;5033703;28;20055;-31
2023/04/22 03:51:02;;;;;;;2.80;1.90;;;;;;;17.87;43.95;96202.91;5033704;28;20022;-31
2023/04/22 03:53:28;;;;;;;2.35;1.80;;;;;;;17.90;43.26;96201.97;5037900;28;20021;-31
2023/04/22 03:55:53;;;;;;;3.28;1.70;;;;;;;17.66;43.75;96207.63;5042721;28;20021;-31
2023/04/22 03:58:19;;;;;;;2.65;1.90;;;;;;;17.91;43.07;96206.97;5040419;28;20495;-31
2023/04/22 04:00:44;;;;;;;2.38;1.58;;;;;;;17.91;43.22;96203.47;5032438;28;20025;-30
2023/04/22 04:03:10;;;;;;;2.28;1.35;;;;;;;17.87;43.55;96209.16;5033404;28;20040;-30
2023/04/22 04:05:35;;;;;;;2.17;1.52;;;;;;;17.87;43.62;96206.41;5033187;28;20044;-30
2023/04/22 04:08:01;;;;;;;2.20;1.77;;;;;;;17.49;44.29;96212.09;5031754;28;20021;-30
2023/04/22 04:10:27;;;;;;;2.80;1.50;;;;;;;17.75;43.92;96204.75;5040545;28;20028;-30
2023/04/22 04:12:52;;;;;;;2.35;1.63;;;;;;;17.76;43.80;96205.53;5032949;28;20457;-30
2023/04/22 04:15:18;;;;;;;1.58;1.30;;;;;;;17.83;43.50;96213.34;5033393;28;20029;-30
2023/04/22 04:17:44;;;;;;;3.47;1.92;;;;;;;17.71;44.08;96215.16;5040146;28;20499;-29
2023/04/22 04:20:10;;;;;;;2.63;1.60;;;;;;;17.52;44.12;96209.16;5033201;28;20105;-32
2023/04/22 04:22:37;;;;;;;2.38;2.10;;;;;;;17.65;44.34;96211.63;5040135;28;20419;-31
2023/04/22 04:25:03;;;;;;;3.25;1.80;;;;;;;17.78;43.77;96209.31;5040796;28;20023;-30
2023/04/22 04:27:28;;;;;;;2.08;1.42;;;;;;;17.60;43.91;96215.00;5039204;28;20022;-31
2023/04/22 04:29:55;;;;;;;2.15;1.80;;;;;;;17.67;43.89;96214.63;5036883;28;20033;-31
2023/04/22 04:32:22;;;;;;;2.70;1.65;;;;;;;17.67;43.63;96224.84;5036649;28;20469;-30
2023/04/22 04:34:48;;;;;;;2.40;1.58;;;;;;;17.68;43.85;96226.38;5035935;28;20045;-30
2023/04/22 04:37:13;;;;;;;2.20;1.58;;;;;;;17.73;43.63;96229.16;5036636;28;20021;-30
2023/04/22 04:39:38;;;;;;;3.55;1.80;;;;;;;17.63;43.56;96229.75;5042347;28;20037;-31
2023/04/22 04:42:04;;;;;;;2.15;1.55;;;;;;;17.72;43.56;96226.91;5044158;28;20029;-30
2023/04/22 04:44:33;;;;;;;2.10;1.73;;;;;;;17.72;43.68;96229.66;5036761;28;20017;-30
2023/04/22 04:46:58;;;;;;;4.32;2.03;;;;;;;17.64;43.87;96232.03;5036656;28;20500;-30
2023/04/22 04:49:25;;;;;;;3.08;1.63;;;;;;;17.60;44.27;96234.19;5036522;28;20033;-30
2023/04/22 04:51:51;;;;;;;1.98;1.63;;;;;;;17.72;43.97;96233.13;5043140;28;20028;-29
2023/04/22 04:54:16;;;;;;;2.58;1.80;;;;;;;17.69;44.05;96227.84;5046307;28;20082;-30
2023/04/22 04:56:42;;;;;;;2.47;2.10;;;;;;;17.80;43.83;96228.75;5040922;28;20071;-32
2023/04/22 04:59:07;;;;;;;3.53;1.95;;;;;;;17.59;44.16;96247.16;5043236;28;20024;-30
2023/04/22 05:01:33;;;;;;;2.75;1.80;;;;;;;17.80;43.97;96233.50;5034499;28;20021;-30
2023/04/22 05:03:58;;;;;;;2.50;1.83;;;;;;;17.71;44.37;96245.34;5036096;28;20013;-30
2023/04/22 05:06:23;;;;;;;2.42;1.73;;;;;;;17.60;44.84;96245.91;5043414;28;20017;-30
2023/04/22 05:08:49;;;;;;;2.65;2.08;;;;;;;17.56;44.92;96245.34;5043456;28;20017;-32
2023/04/22 05:11:14;;;;;;;3.28;1.85;;;;;;;17.63;44.86;96246.19;5036147;28;20522;-30
2023/04/22 05:13:40;;;;;;;3.28;1.77;;;;;;;17.65;44.61;96238.28;5035957;28;20037;-31
2023/04/22 05:16:05;;;;;;;2.88;2.13;;;;;;;17.65;45.11;96243.75;5036038;28;20480;-31
2023/04/22 05:18:31;;;;;;;3.10;1.98;;;;;;;17.75;44.93;96243.16;5048950;28;20388;-30
2023/04/22 05:20:59;;;;;;;3.03;1.88;;;;;;;17.83;44.79;96243.50;5038953;28;20028;-31
2023/04/22 05:23:25;;;;;;;5.30;2.10;;;;;;;17.64;45.11;96251.25;5038201;28;20398;-30
2023/04/22 05:25:51;;;;;;;4.13;2.00;;;;;;;17.67;45.33;96246.78;5028422;28;20083;-30
2023/04/22 05:28:16;;;;;;;3.10;1.98;;;;;;;17.64;45.30;96247.75;5035690;28;20436;-30
2023/04/22 05:30:42;;;;;;;2.63;1.92;;;;;;;17.77;45.56;96246.19;5035861;28;20022;-30
2023/04/22 05:33:07;;;;;;;3.35;1.75;;;;;;;17.61;45.55;96260.38;5035718;28;20457;-30
2023/04/22 05:35:34;;;;;;;2.60;2.03;;;;;;;17.85;44.79;96258.25;5048500;28;20040;-30
2023/04/22 05:38:01;;;;;;;5.07;2.38;;;;;;;17.80;45.25;96261.66;5042056;28;20488;-30
2023/04/22 05:40:27;;;;;;;2.65;1.98;;;;;;;17.92;45.41;96259.84;5035560;28;20025;-30
2023/04/22 05:42:52;;;;;;;2.50;2.00;;;;;;;17.89;45.32;96255.31;5035362;28;20462;-30
2023/04/22 05:45:18;;;;;;;3.97;2.03;;;;;;;17.91;45.29;96263.84;5035488;28;20014;-31
2023/04/22 05:47:43;;;;;;;2.53;2.08;;;;;;;18.01;44.78;96270.69;5042131;28;20029;-30
2023/04/22 05:50:09;;;;;;;2.95;2.17;;;;;;;18.04;44.98;96269.00;5037472;28;20108;-31
2023/04/22 05:52:34;;;;;;;4.07;2.20;;;;;;;17.86;45.39;96275.47;5040098;28;20021;-30
2023/04/22 05:55:00;;;;;;;3.65;2.28;;;;;;;18.05;45.25;96273.25;5042967;28;20482;-30
2023/04/22 05:57:26;;;;;;;2.13;1.67;;;;;;;18.04;45.25;96274.47;5035073;28;20029;-31
2023/04/22 05:59:51;;;;;;;3.72;1.90;;;;;;;17.95;45.61;96278.09;5042162;28;20087;-29
2023/04/22 06:02:16;;;;;;;2.53;1.83;;;;;;;18.07;45.63;96277.00;5035264;28;20029;-30
2023/04/22 06:04:42;;;;;;;2.60;2.17;;;;;;;17.88;46.47;96276.50;5041874;28;20041;-30
2023/04/22 06:07:07;;;;;;;2.97;1.88;;;;;;;18.11;45.46;96283.06;5042040;28;20457;-31
2023/04/22 06:09:33;;;;;;;3.13;2.05;;;;;;;18.09;45.56;96282.78;5035184;28;20136;-30
2023/04/22 06:11:58;;;;;;;3.95;1.90;;;;;;;17.91;46.17;96278.31;5034900;28;20021;-30
2023/04/22 06:14:24;;;;;;;2.60;2.17;;;;;;;18.10;45.78;96283.53;5035047;28;20033;-29
2023/04/22 06:16:51;;;;;;;2.70;1.83;;;;;;;18.04;45.79;96291.69;5033923;28;20022;-30
2023/04/22 06:19:17;;;;;;;3.10;1.60;;;;;;;18.17;45.49;96285.88;5034441;28;20373;-29
2023/04/22 06:21:42;;;;;;;4.20;1.77;;;;;;;18.01;46.64;96292.66;5041925;28;20022;-30
2023/04/22 06:24:09;;;;;;;2.65;2.10;;;;;;;18.24;46.13;96299.19;5034473;28;20036;-29
2023/04/22 06:26:35;;;;;;;2.80;2.28;;;;;;;18.22;46.01;96291.44;5034733;28;20025;-29
2023/04/22 06:29:04;;;;;;;3.70;2.17;;;;;;;18.10;46.36;96303.50;5034704;28;20025;-29
2023/04/22 06:31:30;;;;;;;3.22;1.95;;;;;;;18.07;46.55;96307.19;5034217;28;20075;-30
2023/04/22 06:33:55;;;;;;;2.67;2.03;;;;;;;18.13;46.39;96304.53;5048415;28;20017;-30
2023/04/22 06:36:21;;;;;;;2.65;2.05;;;;;;;18.22;46.44;96310.63;5041679;28;20068;-29
2023/04/22 06:38:46;;;;;;;2.60;1.77;;;;;;;18.22;46.35;96310.63;5034722;28;20022;-29
2023/04/22 06:41:12;;;;;;;2.90;2.00;;;;;;;18.05;46.53;96322.63;5034344;28;20025;-29
2023/04/22 06:43:38;;;;;;;2.50;1.70;;;;;;;18.20;46.55;96315.84;5032645;28;20057;-29
2023/04/22 06:46:04;;;;;;;2.65;2.13;;;;;;;18.06;46.52;96305.66;5035885;28;20026;-29
2023/04/22 06:48:29;;;;;;;3.95;2.08;;;;;;;18.28;46.09;96313.47;5039315;28;20029;-29
2023/04/22 06:50:56;;;;;;;4.95;2.00;;;;;;;18.36;46.20;96300.84;5041559;28;20051;-29
2023/04/22 06:53:21;;;;;;;2.53;1.73;;;;;;;18.30;46.62;96308.22;5037665;28;20381;-29
2023/04/22 06:55:47;;;;;;;2.97;1.77;;;;;;;18.14;47.54;96315.03;5038101;28;20021;-30
2023/04/22 06:58:12;;;;;;;2.00;1.70;;;;;;;18.28;47.09;96316.22;5035265;28;20033;-29
2023/04/22 07:00:38;;;;;;;2.30;1.92;;;;;;;18.23;47.29;96325.88;5046721;28;20045;-29
2023/04/22 07:03:03;;;;;;;3.25;1.90;;;;;;;18.26;47.45;96324.16;5041502;28;20077;-30
2023/04/22 07:05:28;;;;;;;2.97;2.22;;;;;;;18.38;47.00;96327.81;5033765;28;20091;-29
2023/04/22 07:07:54;;;;;;;2.45;1.80;;;;;;;18.26;47.36;96335.16;5033813;28;20055;-29
2023/04/22 07:10:20;;;;;;;2.47;1.90;;;;;;;18.42;47.10;96329.09;5034191;28;20374;-29
2023/04/22 07:12:45;;;;;;;3.03;1.90;;;;;;;18.37;47.09;96329.03;5037843;28;20035;-29
2023/04/22 07:15:10;;;;;;;2.70;1.92;;;;;;;18.37;46.97;96323.56;5035652;28;20470;-29
2023/04/22 07:17:36;;;;;;;2.95;1.90;;;;;;;18.54;46.71;96328.03;5047262;28;20025;-30
2023/04/22 07:20:01;;;;;;;3.22;1.95;;;;;;;18.51;46.98;96325.47;5033941;28;20393;-29
2023/04/22 07:22:27;;;;;;;3.30;2.00;;;;;;;18.52;46.92;96321.50;5033832;28;20025;-30
2023/04/22 07:24:52;;;;;;;2.40;1.80;;;;;;;18.39;47.19;96319.09;5033552;28;20018;-30
2023/04/22 07:27:18;;;;;;;2.97;1.80;;;;;;;18.38;47.12;96319.56;5033671;28;20092;-30
2023/04/22 07:29:43;;;;;;;3.53;2.28;;;;;;;18.61;46.80;96322.13;5040995;28;20021;-31
2023/04/22 07:32:09;;;;;;;3.15;2.30;;;;;;;18.60;46.90;96322.63;5038248;28;20051;-30
2023/04/22 07:34:35;;;;;;;3.58;2.20;;;;;;;18.66;46.83;96323.44;5035677;28;20025;-30
2023/04/22 07:37:00;;;;;;;3.15;2.20;;;;;;;18.59;46.76;96313.63;5041058;28;20020;-30
2023/04/22 07:39:26;;;;;;;2.83;2.33;;;;;;;18.55;46.83;96317.75;5033512;28;20021;-30
2023/04/22 07:41:52;;;;;;;3.97;2.47;;;;;;;18.76;47.23;96322.06;5034604;28;20043;-30
2023/04/22 07:44:20;;;;;;;3.20;2.03;;;;;;;18.75;47.24;96317.03;5040750;28;20015;-30
2023/04/22 07:46:46;;;;;;;2.72;2.42;;;;;;;18.79;47.63;96318.31;5040456;28;20051;-30
2023/04/22 07:49:16;;;;;;;2.35;1.92;;;;;;;18.71;48.55;96330.97;5033687;28;20021;-30
2023/04/22 07:51:42;;;;;;;2.58;2.10;;;;;;;18.52;48.96;96319.50;5033430;28;20438;-30
2023/04/22 07:54:08;;;;;;;2.67;2.08;;;;;;;18.73;48.66;96328.50;5041016;28;20036;-29
2023/04/22 07:56:33;;;;;;;4.28;2.60;;;;;;;18.83;48.09;96329.88;5040412;28;20128;-30
2023/04/22 07:58:59;;;;;;;5.35;2.60;;;;;;;18.54;48.99;96324.53;5035324;28;20024;-30
2023/04/22 08:01:24;;;;;;;2.95;2.08;;;;;;;18.71;48.40;96328.22;5037465;28;20021;-29
2023/04/22 08:03:50;;;;;;;3.15;2.05;;;;;;;18.75;48.52;96331.53;5037071;28;20025;-30
2023/04/22 08:06:15;;;;;;;3.33;2.30;;;;;;;18.76;47.92;96338.53;5037472;28;20113;-29
2023/04/22 08:08:40;;;;;;;2.97;2.08;;;;;;;18.82;47.98;96333.84;5041220;28;20021;-30
2023/04/22 08:11:06;;;;;;;2.60;2.00;;;;;;;18.79;48.03;96329.31;5040298;28;20105;-30
2023/04/22 08:13:31;;;;;;;3.42;2.22;;;;;;;18.77;48.43;96339.28;5044578;28;20025;-30
2023/04/22 08:15:57;;;;;;;4.10;2.22;;;;;;;18.82;48.28;96335.84;5035725;28;20037;-29
2023/04/22 08:18:22;;;;;;;2.72;2.25;;;;;;;18.72;48.44;96327.00;5044620;28;20024;-29
2023/04/22 08:20:49;;;;;;;2.70;2.08;;;;;;;18.70;48.79;96329.47;5037225;28;20045;-29
2023/04/22 08:23:14;;;;;;;3.22;2.15;;;;;;;18.78;48.38;96335.31;5037019;28;20029;-29
2023/04/22 08:25:40;;;;;;;2.60;2.10;;;;;;;18.75;47.75;96336.28;5044084;28;20026;-29
2023/04/22 08:28:05;;;;;;;3.45;2.15;;;;;;;18.79;48.11;96334.81;5036784;28;20025;-29
2023/04/22 08:30:31;;;;;;;2.40;2.00;;;;;;;18.77;48.19;96342.81;5035295;28;20029;-31
2023/04/22 08:32:56;;;;;;;3.05;2.13;;;;;;;18.87;48.38;96329.66;5036761;28;20050;-29
2023/04/22 08:35:21;;;;;;;3.78;2.00;;;;;;;18.84;47.93;96334.13;5042797;28;20025;-30
2023/04/22 08:37:47;;;;;;;2.65;1.85;;;;;;;18.84;48.25;96331.38;5036522;28;20440;-29
2023/04/22 08:40:12;;;;;;;3.20;2.20;;;;;;;18.85;48.36;96332.13;5043053;28;20031;-29
2023/04/22 08:42:42;;;;;;;4.45;2.33;;;;;;;18.78;48.64;96327.06;5044089;28;20021;-31
2023/04/22 08:45:08;;;;;;;2.90;2.10;;;;;;;18.80;48.39;96336.31;5043829;28;20013;-29
2023/04/22 08:47:37;;;;;;;2.78;2.05;;;;;;;18.86;48.13;96333.66;5035419;28;20026;-30
2023/04/22 08:50:04;;;;;;;5.32;2.35;;;;;;;18.83;48.20;96332.63;5036553;28;20017;-29
2023/04/22 08:52:30;;;;;;;3.20;2.22;;;;;;;18.87;48.49;96332.41;5043572;28;20488;-29
2023/04/22 08:54:55;;;;;;;3.30;2.00;;;;;;;18.87;48.36;96329.66;5050792;28;20029;-31
2023/04/22 08:57:27;;;;;;;3.03;2.20;;;;;;;18.82;48.65;96333.84;5036335;28;20083;-29
2023/04/22 08:59:55;;;;;;;3.58;2.25;;;;;;;18.99;47.72;96328.53;5036200;28;20484;-30
2023/04/22 09:02:22;;;;;;;3.58;2.30;;;;;;;18.91;47.80;96333.72;5036518;28;20452;-29
2023/04/22 09:04:50;;;;;;;3.55;2.10;;;;;;;18.89;48.01;96327.19;5036001;28;20037;-29
2023/04/22 09:07:37;;;;;;;3.25;2.20;;;;;;;18.95;47.82;96326.00;5036953;28;20075;-29
2023/04/22 09:10:03;;;;;;;3.08;2.08;;;;;;;18.94;48.36;96327.22;5039428;28;20389;-30
2023/04/22 09:12:28;;;;;;;3.42;2.17;;;;;;;19.02;47.73;96327.56;5036128;28;20049;-32
2023/04/22 09:14:55;;;;;;;2.67;2.10;;;;;;;19.00;47.98;96335.53;5035805;28;20418;-29
2023/04/22 09:17:36;;;;;;;2.95;2.13;;;;;;;18.94;47.50;96327.22;5043422;28;20465;-29
2023/04/22 09:20:03;;;;;;;3.63;2.25;;;;;;;18.98;47.66;96333.28;5035918;28;20057;-29
2023/04/22 09:22:37;;;;;;;2.72;1.98;;;;;;;19.02;47.69;96330.31;5043248;28;20030;-30
2023/04/22 09:25:03;;;;;;;4.47;2.33;;;;;;;19.10;47.49;96327.88;5036009;28;20056;-29
2023/04/22 09:27:29;;;;;;;3.13;2.10;;;;;;;19.11;47.51;96319.16;5036171;28;20447;-29
2023/04/22 09:29:54;;;;;;;3.35;2.00;;;;;;;19.11;47.32;96313.66;5035666;28;20112;-31
2023/04/22 09:32:24;;;;;;;4.72;2.00;;;;;;;19.10;47.32;96314.91;5035840;28;20041;-29
2023/04/22 09:34:54;;;;;;;2.92;2.20;;;;;;;19.08;47.17;96314.63;5044284;28;20053;-29
2023/04/22 09:37:23;;;;;;;2.97;2.10;;;;;;;19.12;46.92;96319.91;5039416;28;20021;-29
2023/04/22 09:39:49;;;;;;;4.78;2.22;;;;;;;19.08;46.97;96313.88;5035577;28;20064;-29
2023/04/22 09:42:16;;;;;;;2.90;2.10;;;;;;;19.09;46.52;96315.38;5041649;28;20025;-31
2023/04/22 09:44:41;;;;;;;3.53;2.35;;;;;;;19.25;46.35;96309.28;5035223;28;20025;-29
2023/04/22 09:47:09;;;;;;;2.95;2.10;;;;;;;19.19;46.68;96316.72;5037857;28;20028;-29
2023/04/22 09:49:37;;;;;;;3.80;2.10;;;;;;;19.28;46.43;96311.09;5040040;28;20027;-29
2023/04/22 09:52:03;;;;;;;3.58;2.20;;;;;;;19.21;46.59;96312.25;5035289;28;20102;-31
2023/04/22 09:54:29;;;;;;;3.00;2.22;;;;;;;19.20;46.33;96315.50;5035001;28;20484;-29
2023/04/22 09:56:55;;;;;;;4.53;2.15;;;;;;;19.33;46.12;96310.34;5042464;28;20380;-32
2023/04/22 09:59:23;;;;;;;2.53;1.92;;;;;;;19.29;45.52;96312.56;5048726;28;20060;-30
2023/04/22 10:01:51;;;;;;;2.45;2.05;;;;;;;19.26;45.82;96313.56;5042165;28;20105;-31
2023/04/22 10:04:20;;;;;;;2.72;2.13;;;;;;;19.26;45.74;96310.81;5040692;28;20080;-29
2023/04/22 10:06:47;;;;;;;2.67;2.00;;;;;;;19.34;45.39;96315.38;5034668;28;20163;-30
2023/04/22 10:09:14;;;;;;;2.00;1.65;;;;;;;19.34;45.21;96320.13;5035314;28;20033;-30
2023/04/22 10:11:40;;;;;;;2.30;1.75;;;;;;;19.34;45.36;96318.13;5034801;28;20026;-29
2023/04/22 10:14:06;;;;;;;2.95;1.85;;;;;;;19.28;45.61;96324.84;5041433;28;20033;-29
2023/04/22 10:16:33;;;;;;;2.53;1.83;;;;;;;19.31;45.41;96316.34;5034900;28;20025;-30
2023/04/22 10:19:02;;;;;;;3.00;2.33;;;;;;;19.45;45.16;96314.72;5034825;28;20051;-29
2023/04/22 10:21:29;;;;;;;2.35;1.85;;;;;;;19.38;45.25;96304.16;5034292;28;20036;-29
2023/04/22 10:23:57;;;;;;;2.85;1.77;;;;;;;19.45;45.43;96306.47;5034617;28;20097;-30
2023/04/22 10:26:58;;;;;;;3.70;2.22;;;;;;;19.43;45.43;96302.69;5034538;28;20021;-29
2023/04/22 10:29:25;;;;;;;2.88;1.98;;;;;;;19.43;45.46;96306.19;5038018;28;20017;-30
2023/04/22 10:32:05;;;;;;;3.70;2.20;;;;;;;19.46;45.38;96298.97;5034656;28;20013;-29
2023/04/22 10:34:31;;;;;;;2.92;1.80;;;;;;;19.51;45.31;96304.56;5032507;28;20116;-30
2023/04/22 10:37:00;;;;;;;3.53;2.10;;;;;;;19.49;45.55;96301.53;5042304;28;20099;-29
2023/04/22 10:39:27;;;;;;;3.35;2.00;;;;;;;19.46;45.47;96302.47;5029869;28;20108;-30
2023/04/22 10:41:57;;;;;;;3.33;1.98;;;;;;;19.47;45.33;96301.22;5041350;28;20025;-30
2023/04/22 10:44:27;;;;;;;2.30;1.70;;;;;;;19.56;45.18;96312.06;5041305;28;20022;-29
2023/04/22 10:46:52;;;;;;;2.00;1.77;;;;;;;19.67;44.80;96308.66;5034404;28;20112;-30
2023/04/22 10:49:22;;;;;;;3.17;2.00;;;;;;;19.60;44.57;96304.38;5034329;28;20108;-31
2023/04/22 10:51:57;;;;;;;3.42;1.80;;;;;;;19.64;44.34;96306.91;5033776;28;20026;-30
2023/04/22 10:54:30;;;;;;;2.35;1.83;;;;;;;19.54;44.52;96317.31;5027860;28;20428;-29
2023/04/22 10:57:02;;;;;;;;;;;;;;;19.59;44.03;96302.84;5041091;28;20029;-30
2023/04/22 10:59:28;;;;;;;4.07;2.28;;;;;;;19.60;44.49;96303.59;5037433;28;19916;-30
2023/04/22 11:01:54;;;;;;;2.47;1.80;;;;;;;19.57;44.52;96301.81;5037270;28;20036;-30
2023/04/22 11:04:22;;;;;;;2.78;2.00;;;;;;;19.63;44.20;96297.88;5033929;28;20042;-29
2023/04/22 11:07:21;;;;;;;3.83;1.80;;;;;;;19.66;44.17;96305.16;5033847;28;20022;-30
2023/04/22 11:09:50;;;;;;;5.10;1.90;;;;;;;19.63;44.46;96297.88;5035972;28;20120;-30
2023/04/22 11:12:33;;;;;;;2.40;1.77;;;;;;;19.64;44.38;96299.41;5036082;28;20108;-30
2023/04/22 11:15:00;;;;;;;3.72;2.20;;;;;;;19.70;44.13;96296.66;5038522;28;20026;-31
2023/04/22 11:17:26;;;;;;;2.47;1.70;;;;;;;19.70;43.98;96294.69;5041134;28;20029;-29
2023/04/22 11:19:55;;;;;;;3.05;2.13;;;;;;;19.63;44.68;96295.13;5033971;28;20027;-31
2023/04/22 11:22:23;;;;;;;3.13;1.92;;;;;;;19.69;44.07;96295.16;5033563;28;20025;-31
2023/04/22 11:25:01;;;;;;;3.20;1.90;;;;;;;19.72;43.26;96300.44;5041052;28;20484;-29
2023/04/22 11:27:26;;;;;;;1.98;1.30;;;;;;;19.71;42.70;96293.44;5039255;28;20385;-30
2023/04/22 11:30:02;;;;;;;2.25;1.40;;;;;;;19.68;42.12;96286.16;5034018;28;20036;-32
2023/04/22 11:32:28;;;;;;;2.05;1.45;;;;;;;19.75;42.34;96282.22;5032997;28;20461;-31